Time;durP1;ratioP1;P1;durP2;ratioP2;P2;SDS_P1;SDS_P2;PMS_P1;PMS_P2;Temp;Humidity;BMP_temperature;BMP_pressure;BME280_temperature;BME280_humidity;BME280_pressure;Samples;Min_cycle;Max_cycle;Signal;HPM_P1;HPM_P2
2022/02/28 00:00:28;;;;;;;0.00;0.00;;;;;;;;;;5011852;28;20323;-70
2022/02/28 00:02:56;;;;;;;0.00;0.00;;;;;;;;;;5010742;28;20940;-69
2022/02/28 00:05:24;;;;;;;0.40;0.40;;;;;;;;;;5013181;28;20239;-71
2022/02/28 00:07:51;;;;;;;0.00;0.00;;;;;;;;;;5011883;28;20208;-69
2022/02/28 00:10:19;;;;;;;0.10;0.10;;;;;;;;;;5010393;28;20204;-69
2022/02/28 00:12:46;;;;;;;1.03;0.60;;;;;;;;;;5012091;28;20204;-70
2022/02/28 00:15:16;;;;;;;0.03;0.03;;;;;;;;;;5012793;28;20236;-70
2022/02/28 00:17:43;;;;;;;0.20;0.20;;;;;;;;;;5015472;28;20231;-69
2022/02/28 00:20:12;;;;;;;0.00;0.00;;;;;;;;;;5012324;28;20213;-69
2022/02/28 00:22:40;;;;;;;0.00;0.00;;;;;;;;;;5016068;28;20201;-68
2022/02/28 00:25:08;;;;;;;0.00;0.00;;;;;;;;;;5010229;28;21447;-69
2022/02/28 00:27:36;;;;;;;0.00;0.00;;;;;;;;;;5013359;28;20200;-70
2022/02/28 00:30:05;;;;;;;0.00;0.00;;;;;;;;;;5011114;28;20201;-69
2022/02/28 00:32:34;;;;;;;0.00;0.00;;;;;;;;;;5012603;28;20878;-71
2022/02/28 00:35:02;;;;;;;0.00;0.00;;;;;;;;;;5013936;28;20248;-70
2022/02/28 00:37:29;;;;;;;0.43;0.40;;;;;;;;;;5014150;28;20577;-69
2022/02/28 00:39:57;;;;;;;0.00;0.00;;;;;;;;;;5013118;28;20241;-68
2022/02/28 00:42:24;;;;;;;0.00;0.00;;;;;;;;;;5012638;28;20670;-69
2022/02/28 00:44:51;;;;;;;0.00;0.00;;;;;;;;;;5011977;28;20204;-68
2022/02/28 00:47:19;;;;;;;0.00;0.00;;;;;;;;;;5013534;28;20195;-69
2022/02/28 00:49:48;;;;;;;0.00;0.00;;;;;;;;;;5013856;28;20208;-69
2022/02/28 00:52:15;;;;;;;0.00;0.00;;;;;;;;;;5016910;28;20278;-68
2022/02/28 00:54:42;;;;;;;0.00;0.00;;;;;;;;;;5014089;28;20213;-68
2022/02/28 00:57:10;;;;;;;0.00;0.00;;;;;;;;;;5010214;28;20208;-68
2022/02/28 00:59:37;;;;;;;0.97;0.97;;;;;;;;;;5013468;28;20315;-69
2022/02/28 01:02:05;;;;;;;0.00;0.00;;;;;;;;;;5006694;28;20210;-69
2022/02/28 01:04:32;;;;;;;0.00;0.00;;;;;;;;;;5012721;28;20661;-68
2022/02/28 01:07:01;;;;;;;0.20;0.20;;;;;;;;;;5011911;28;20208;-69
2022/02/28 01:09:28;;;;;;;0.00;0.00;;;;;;;;;;5008788;28;21646;-68
2022/02/28 01:11:56;;;;;;;0.00;0.00;;;;;;;;;;5010628;28;20201;-69
2022/02/28 01:14:23;;;;;;;0.00;0.00;;;;;;;;;;5008445;28;20223;-71
2022/02/28 01:16:51;;;;;;;0.00;0.00;;;;;;;;;;5010584;28;20576;-69
2022/02/28 01:19:18;;;;;;;0.00;0.00;;;;;;;;;;5010362;28;20204;-71
2022/02/28 01:21:45;;;;;;;0.00;0.00;;;;;;;;;;5015470;28;20197;-73
2022/02/28 01:24:14;;;;;;;0.10;0.10;;;;;;;;;;5011072;28;20204;-71
2022/02/28 01:26:42;;;;;;;0.00;0.00;;;;;;;;;;5010783;28;20228;-70
2022/02/28 01:29:09;;;;;;;0.00;0.00;;;;;;;;;;5010868;28;20290;-71
2022/02/28 01:31:37;;;;;;;0.40;0.40;;;;;;;;;;5011690;28;20219;-70
2022/02/28 01:34:04;;;;;;;0.00;0.00;;;;;;;;;;5007312;28;20219;-71
2022/02/28 01:36:32;;;;;;;0.00;0.00;;;;;;;;;;5008610;28;20735;-70
2022/02/28 01:39:00;;;;;;;0.00;0.00;;;;;;;;;;5013060;28;20235;-72
2022/02/28 01:41:28;;;;;;;0.00;0.00;;;;;;;;;;5012089;28;20236;-70
2022/02/28 01:43:56;;;;;;;0.00;0.00;;;;;;;;;;5012411;28;20232;-69
2022/02/28 01:46:23;;;;;;;0.00;0.00;;;;;;;;;;5012425;28;20223;-69
2022/02/28 01:48:51;;;;;;;0.00;0.00;;;;;;;;;;5011159;28;20197;-71
2022/02/28 01:51:18;;;;;;;0.00;0.00;;;;;;;;;;5009957;28;20577;-70
2022/02/28 01:53:45;;;;;;;0.00;0.00;;;;;;;;;;5010281;28;20205;-70
2022/02/28 01:56:13;;;;;;;0.00;0.00;;;;;;;;;;5009484;28;20224;-70
2022/02/28 01:58:42;;;;;;;0.00;0.00;;;;;;;;;;5010068;28;20201;-71
2022/02/28 02:01:09;;;;;;;0.00;0.00;;;;;;;;;;5013216;28;20885;-70
2022/02/28 02:03:37;;;;;;;0.23;0.23;;;;;;;;;;5010650;28;20201;-69
2022/02/28 02:06:06;;;;;;;0.00;0.00;;;;;;;;;;5008647;28;20208;-70
2022/02/28 02:08:34;;;;;;;0.00;0.00;;;;;;;;;;5006288;28;20216;-70
2022/02/28 02:11:02;;;;;;;0.00;0.00;;;;;;;;;;5011880;28;20244;-71
2022/02/28 02:13:31;;;;;;;0.00;0.00;;;;;;;;;;5016014;28;20210;-70
2022/02/28 02:16:01;;;;;;;0.53;0.53;;;;;;;;;;5012430;28;20221;-71
2022/02/28 02:18:29;;;;;;;0.00;0.00;;;;;;;;;;5014988;28;20204;-72
2022/02/28 02:20:57;;;;;;;0.00;0.00;;;;;;;;;;5008526;28;20658;-70
2022/02/28 02:23:27;;;;;;;0.10;0.10;;;;;;;;;;5010335;28;20263;-72
2022/02/28 02:25:55;;;;;;;0.00;0.00;;;;;;;;;;5011159;28;21590;-70
2022/02/28 02:28:22;;;;;;;0.00;0.00;;;;;;;;;;5009351;28;20211;-73
2022/02/28 02:30:50;;;;;;;0.00;0.00;;;;;;;;;;5008873;28;20216;-72
2022/02/28 02:33:18;;;;;;;0.30;0.20;;;;;;;;;;5013952;28;20220;-72
2022/02/28 02:35:48;;;;;;;0.13;0.13;;;;;;;;;;5015678;28;20216;-73
2022/02/28 02:38:16;;;;;;;0.00;0.00;;;;;;;;;;5018660;28;20200;-70
2022/02/28 02:40:44;;;;;;;0.23;0.23;;;;;;;;;;5017813;28;20702;-70
2022/02/28 02:43:11;;;;;;;0.70;0.70;;;;;;;;;;5013764;28;20216;-70
2022/02/28 02:45:39;;;;;;;0.00;0.00;;;;;;;;;;5013580;28;20196;-70
2022/02/28 02:48:13;;;;;;;0.17;0.17;;;;;;;;;;5013520;28;20200;-71
2022/02/28 02:50:40;;;;;;;0.00;0.00;;;;;;;;;;5011378;28;20204;-70
2022/02/28 02:53:08;;;;;;;0.10;0.10;;;;;;;;;;5012094;28;20204;-73
2022/02/28 02:55:37;;;;;;;2.27;2.17;;;;;;;;;;5012097;28;20228;-70
2022/02/28 02:58:04;;;;;;;0.00;0.00;;;;;;;;;;5018751;28;20649;-69
2022/02/28 03:00:32;;;;;;;0.00;0.00;;;;;;;;;;5012853;28;20196;-70
2022/02/28 03:02:59;;;;;;;0.00;0.00;;;;;;;;;;5014388;28;20196;-71
2022/02/28 03:05:27;;;;;;;0.00;0.00;;;;;;;;;;5013461;28;20197;-71
2022/02/28 03:07:55;;;;;;;2.60;2.50;;;;;;;;;;5013969;28;20201;-71
2022/02/28 03:10:22;;;;;;;0.00;0.00;;;;;;;;;;5014211;28;20204;-70
2022/02/28 03:12:51;;;;;;;1.17;0.93;;;;;;;;;;5018600;28;20204;-71
2022/02/28 03:15:18;;;;;;;0.00;0.00;;;;;;;;;;5015333;28;20232;-72
2022/02/28 03:17:46;;;;;;;1.33;1.00;;;;;;;;;;5014718;28;20626;-70
2022/02/28 03:20:13;;;;;;;0.00;0.00;;;;;;;;;;5011072;28;20205;-70
2022/02/28 03:22:41;;;;;;;0.00;0.00;;;;;;;;;;5015018;28;20200;-70
2022/02/28 03:25:09;;;;;;;0.00;0.00;;;;;;;;;;5012861;28;20584;-71
2022/02/28 03:27:38;;;;;;;0.07;0.07;;;;;;;;;;5019092;28;20205;-71
2022/02/28 03:30:08;;;;;;;0.00;0.00;;;;;;;;;;5017233;28;20208;-71
2022/02/28 03:32:35;;;;;;;0.00;0.00;;;;;;;;;;5011410;28;20196;-70
2022/02/28 03:35:02;;;;;;;0.00;0.00;;;;;;;;;;5009783;28;20205;-71
2022/02/28 03:37:30;;;;;;;0.00;0.00;;;;;;;;;;5011637;28;20574;-70
2022/02/28 03:39:57;;;;;;;0.40;0.40;;;;;;;;;;5016010;28;20582;-71
2022/02/28 03:42:24;;;;;;;0.00;0.00;;;;;;;;;;5012718;28;20196;-70
2022/02/28 03:44:52;;;;;;;0.20;0.20;;;;;;;;;;5014199;28;20227;-70
2022/02/28 03:47:20;;;;;;;0.33;0.33;;;;;;;;;;5012651;28;20570;-71
2022/02/28 03:49:48;;;;;;;0.10;0.10;;;;;;;;;;5017399;28;20203;-71
2022/02/28 03:52:16;;;;;;;0.00;0.00;;;;;;;;;;5009569;28;20666;-70
2022/02/28 03:54:43;;;;;;;0.00;0.00;;;;;;;;;;5013376;28;20203;-69
2022/02/28 03:57:10;;;;;;;0.00;0.00;;;;;;;;;;5015198;28;20600;-70
2022/02/28 03:59:38;;;;;;;1.70;0.97;;;;;;;;;;5011690;28;20197;-70
2022/02/28 04:02:06;;;;;;;0.00;0.00;;;;;;;;;;5013380;28;20208;-70
2022/02/28 04:04:34;;;;;;;0.03;0.03;;;;;;;;;;5012237;28;20201;-70
2022/02/28 04:07:02;;;;;;;0.00;0.00;;;;;;;;;;5009784;28;20602;-70
2022/02/28 04:09:30;;;;;;;0.00;0.00;;;;;;;;;;5012728;28;20303;-70
2022/02/28 04:11:57;;;;;;;0.93;0.93;;;;;;;;;;5014139;28;20844;-71
2022/02/28 04:14:24;;;;;;;0.10;0.10;;;;;;;;;;5014024;28;20197;-70
2022/02/28 04:16:52;;;;;;;0.00;0.00;;;;;;;;;;5011302;28;20224;-74
2022/02/28 04:19:19;;;;;;;0.40;0.40;;;;;;;;;;5015790;28;20193;-70
2022/02/28 04:21:48;;;;;;;0.00;0.00;;;;;;;;;;5011892;28;20600;-70
2022/02/28 04:24:15;;;;;;;0.00;0.00;;;;;;;;;;5015476;28;20199;-71
2022/02/28 04:26:44;;;;;;;0.00;0.00;;;;;;;;;;5018503;28;20211;-69
2022/02/28 04:29:12;;;;;;;0.30;0.23;;;;;;;;;;5012312;28;20234;-70
2022/02/28 04:31:40;;;;;;;1.03;1.03;;;;;;;;;;5015107;28;20207;-70
2022/02/28 04:34:07;;;;;;;0.13;0.13;;;;;;;;;;5016915;28;20200;-70
2022/02/28 04:36:35;;;;;;;0.00;0.00;;;;;;;;;;5012720;28;20251;-71
2022/02/28 04:39:04;;;;;;;0.00;0.00;;;;;;;;;;5010938;28;20227;-71
2022/02/28 04:41:32;;;;;;;0.00;0.00;;;;;;;;;;5014055;28;20216;-70
2022/02/28 04:43:59;;;;;;;0.00;0.00;;;;;;;;;;5013569;28;20529;-70
2022/02/28 04:46:26;;;;;;;0.00;0.00;;;;;;;;;;5010665;28;20205;-70
2022/02/28 04:48:54;;;;;;;0.03;0.03;;;;;;;;;;5011051;28;20215;-70
2022/02/28 04:51:21;;;;;;;0.00;0.00;;;;;;;;;;5011623;28;20201;-69
2022/02/28 04:53:48;;;;;;;0.00;0.00;;;;;;;;;;5014677;28;20208;-70
2022/02/28 04:56:17;;;;;;;0.00;0.00;;;;;;;;;;5012565;28;20227;-70
2022/02/28 04:58:45;;;;;;;0.30;0.30;;;;;;;;;;5014053;28;20200;-71
2022/02/28 05:01:13;;;;;;;0.00;0.00;;;;;;;;;;5011708;28;20532;-71
2022/02/28 05:03:40;;;;;;;0.00;0.00;;;;;;;;;;5012091;28;20197;-70
2022/02/28 05:06:07;;;;;;;0.00;0.00;;;;;;;;;;5013528;28;20200;-70
2022/02/28 05:08:35;;;;;;;0.00;0.00;;;;;;;;;;5012627;28;20613;-69
2022/02/28 05:11:02;;;;;;;0.00;0.00;;;;;;;;;;5015684;28;20216;-70
2022/02/28 05:13:32;;;;;;;0.00;0.00;;;;;;;;;;5007973;28;20201;-71
2022/02/28 05:15:59;;;;;;;0.00;0.00;;;;;;;;;;5013324;28;20228;-69
2022/02/28 05:18:27;;;;;;;0.00;0.00;;;;;;;;;;5011536;28;20196;-72
2022/02/28 05:20:54;;;;;;;0.00;0.00;;;;;;;;;;5015391;28;20200;-70
2022/02/28 05:23:21;;;;;;;0.00;0.00;;;;;;;;;;5010328;28;20200;-71
2022/02/28 05:25:49;;;;;;;0.00;0.00;;;;;;;;;;5012794;28;20211;-72
2022/02/28 05:28:16;;;;;;;0.00;0.00;;;;;;;;;;5013132;28;20208;-72
2022/02/28 05:30:47;;;;;;;0.00;0.00;;;;;;;;;;5010828;28;20659;-71
2022/02/28 05:33:15;;;;;;;0.00;0.00;;;;;;;;;;5012506;28;20197;-70
2022/02/28 05:35:42;;;;;;;0.07;0.07;;;;;;;;;;5012555;28;20327;-71
2022/02/28 05:38:10;;;;;;;0.00;0.00;;;;;;;;;;5010757;28;20193;-70
2022/02/28 05:40:37;;;;;;;0.00;0.00;;;;;;;;;;5010808;28;20240;-69
2022/02/28 05:43:08;;;;;;;0.00;0.00;;;;;;;;;;5013269;28;20660;-70
2022/02/28 05:45:37;;;;;;;0.00;0.00;;;;;;;;;;5012995;28;20231;-70
2022/02/28 05:48:07;;;;;;;0.00;0.00;;;;;;;;;;5010540;28;20250;-73
2022/02/28 05:50:37;;;;;;;0.93;0.93;;;;;;;;;;5012411;28;20192;-73
2022/02/28 05:53:04;;;;;;;0.00;0.00;;;;;;;;;;5010060;28;20671;-71
2022/02/28 05:55:34;;;;;;;0.00;0.00;;;;;;;;;;5008560;28;20577;-72
2022/02/28 05:58:01;;;;;;;0.10;0.10;;;;;;;;;;5011072;28;20581;-69
2022/02/28 06:00:29;;;;;;;0.20;0.20;;;;;;;;;;5014906;28;20193;-69
2022/02/28 06:02:56;;;;;;;0.00;0.00;;;;;;;;;;5011440;28;20204;-73
2022/02/28 06:05:25;;;;;;;0.00;0.00;;;;;;;;;;5012467;28;20217;-71
2022/02/28 06:07:52;;;;;;;0.00;0.00;;;;;;;;;;5010586;28;20197;-72
2022/02/28 06:10:20;;;;;;;0.00;0.00;;;;;;;;;;5009112;28;20634;-69
2022/02/28 06:12:47;;;;;;;0.00;0.00;;;;;;;;;;5014815;28;20558;-69
2022/02/28 06:15:15;;;;;;;0.63;0.63;;;;;;;;;;5010110;28;20201;-69
2022/02/28 06:17:42;;;;;;;0.00;0.00;;;;;;;;;;5016508;28;20228;-72
2022/02/28 06:20:10;;;;;;;4.20;3.80;;;;;;;;;;5014630;28;20196;-69
2022/02/28 06:22:38;;;;;;;0.00;0.00;;;;;;;;;;5012741;28;20204;-72
2022/02/28 06:25:06;;;;;;;0.00;0.00;;;;;;;;;;5015152;28;20200;-71
2022/02/28 06:27:34;;;;;;;0.10;0.10;;;;;;;;;;5011663;28;20204;-71
2022/02/28 06:30:01;;;;;;;0.00;0.00;;;;;;;;;;5012026;28;21876;-70
2022/02/28 06:32:29;;;;;;;0.00;0.00;;;;;;;;;;5009505;28;20343;-72
2022/02/28 06:34:56;;;;;;;0.00;0.00;;;;;;;;;;5009565;28;20200;-74
2022/02/28 06:37:24;;;;;;;0.00;0.00;;;;;;;;;;5013249;28;20315;-70
2022/02/28 06:39:53;;;;;;;0.00;0.00;;;;;;;;;;5010827;28;20696;-71
2022/02/28 06:42:21;;;;;;;0.00;0.00;;;;;;;;;;5013849;28;20228;-71
2022/02/28 06:44:48;;;;;;;0.00;0.00;;;;;;;;;;5013050;28;20211;-70
2022/02/28 06:47:15;;;;;;;0.10;0.10;;;;;;;;;;5009463;28;20561;-72
2022/02/28 06:49:43;;;;;;;0.00;0.00;;;;;;;;;;5013702;28;20212;-73
2022/02/28 06:52:10;;;;;;;0.00;0.00;;;;;;;;;;5009836;28;20234;-70
2022/02/28 06:54:38;;;;;;;0.00;0.00;;;;;;;;;;5016850;28;20223;-70
2022/02/28 06:57:07;;;;;;;0.10;0.10;;;;;;;;;;5012749;28;20270;-71
2022/02/28 06:59:34;;;;;;;0.00;0.00;;;;;;;;;;5012738;28;20204;-70
2022/02/28 07:02:01;;;;;;;0.00;0.00;;;;;;;;;;5009849;28;20216;-69
2022/02/28 07:04:29;;;;;;;0.00;0.00;;;;;;;;;;5013016;28;20196;-69
2022/02/28 07:06:56;;;;;;;0.00;0.00;;;;;;;;;;5011043;28;20201;-69
2022/02/28 07:09:24;;;;;;;0.00;0.00;;;;;;;;;;5011656;28;20196;-70
2022/02/28 07:11:51;;;;;;;0.20;0.20;;;;;;;;;;5008850;28;20201;-69
2022/02/28 07:14:20;;;;;;;0.00;0.00;;;;;;;;;;5013026;28;20197;-69
2022/02/28 07:16:48;;;;;;;3.40;3.10;;;;;;;;;;5009480;28;20311;-69
2022/02/28 07:19:15;;;;;;;0.07;0.07;;;;;;;;;;5016793;28;20292;-69
2022/02/28 07:21:42;;;;;;;0.07;0.07;;;;;;;;;;5015124;28;20205;-70
2022/02/28 07:24:10;;;;;;;0.00;0.00;;;;;;;;;;5012048;28;20394;-69
2022/02/28 07:26:37;;;;;;;0.20;0.20;;;;;;;;;;5012531;28;20275;-69
2022/02/28 07:29:06;;;;;;;0.00;0.00;;;;;;;;;;5014827;28;20197;-70
2022/02/28 07:31:35;;;;;;;0.00;0.00;;;;;;;;;;5012159;28;20205;-69
2022/02/28 07:34:02;;;;;;;0.00;0.00;;;;;;;;;;5017323;28;20208;-69
2022/02/28 07:36:29;;;;;;;0.20;0.20;;;;;;;;;;5013761;28;20692;-69
2022/02/28 07:38:57;;;;;;;0.10;0.10;;;;;;;;;;5013175;28;20239;-70
2022/02/28 07:41:24;;;;;;;0.00;0.00;;;;;;;;;;5012327;28;20215;-71
2022/02/28 07:43:52;;;;;;;0.00;0.00;;;;;;;;;;5014592;28;20204;-69
2022/02/28 07:46:19;;;;;;;0.10;0.10;;;;;;;;;;5018497;28;20205;-69
2022/02/28 07:48:48;;;;;;;0.00;0.00;;;;;;;;;;5022156;28;20204;-71
2022/02/28 07:51:16;;;;;;;0.20;0.10;;;;;;;;;;5015621;28;20223;-71
2022/02/28 07:53:43;;;;;;;3.53;2.77;;;;;;;;;;5018002;28;20642;-70
2022/02/28 07:56:11;;;;;;;0.00;0.00;;;;;;;;;;5014228;28;20209;-71
2022/02/28 07:58:38;;;;;;;0.93;0.93;;;;;;;;;;5009407;28;20237;-68
2022/02/28 08:01:05;;;;;;;0.00;0.00;;;;;;;;;;5013572;28;20205;-70
2022/02/28 08:03:33;;;;;;;0.07;0.07;;;;;;;;;;5014471;28;20193;-72
2022/02/28 08:06:01;;;;;;;0.00;0.00;;;;;;;;;;5011219;28;20239;-70
2022/02/28 08:08:29;;;;;;;0.37;0.37;;;;;;;;;;5010433;28;20704;-69
2022/02/28 08:10:56;;;;;;;1.43;0.43;;;;;;;;;;5016744;28;20299;-74
2022/02/28 08:13:24;;;;;;;0.23;0.23;;;;;;;;;;5013886;28;20196;-71
2022/02/28 08:15:51;;;;;;;0.00;0.00;;;;;;;;;;5015822;28;20200;-69
2022/02/28 08:18:19;;;;;;;0.53;0.50;;;;;;;;;;5014181;28;20231;-70
2022/02/28 08:20:47;;;;;;;0.53;0.53;;;;;;;;;;5015884;28;20256;-70
2022/02/28 08:23:16;;;;;;;0.00;0.00;;;;;;;;;;5019388;28;20211;-69
2022/02/28 08:25:44;;;;;;;1.03;0.83;;;;;;;;;;5016507;28;20197;-70
2022/02/28 08:28:12;;;;;;;0.00;0.00;;;;;;;;;;5015902;28;20197;-70
2022/02/28 08:30:40;;;;;;;2.33;2.00;;;;;;;;;;5017677;28;20204;-71
2022/02/28 08:33:07;;;;;;;0.40;0.10;;;;;;;;;;5017060;28;20200;-71
2022/02/28 08:35:35;;;;;;;2.03;1.13;;;;;;;;;;5017682;28;21950;-69
2022/02/28 08:38:02;;;;;;;1.80;1.20;;;;;;;;;;5015727;28;20312;-71
2022/02/28 08:40:31;;;;;;;1.20;1.10;;;;;;;;;;5012652;28;20235;-70
2022/02/28 08:42:58;;;;;;;0.00;0.00;;;;;;;;;;5017095;28;20197;-70
2022/02/28 08:45:26;;;;;;;1.77;1.67;;;;;;;;;;5024562;28;20227;-68
2022/02/28 08:47:54;;;;;;;0.30;0.30;;;;;;;;;;5014718;28;20625;-73
2022/02/28 08:50:21;;;;;;;0.00;0.00;;;;;;;;;;5016489;28;20254;-70
2022/02/28 08:52:48;;;;;;;0.80;0.50;;;;;;;;;;5019655;28;20200;-69
2022/02/28 08:55:16;;;;;;;0.23;0.23;;;;;;;;;;5015744;28;20687;-70
2022/02/28 08:57:45;;;;;;;1.23;1.13;;;;;;;;;;5018261;28;20719;-70
2022/02/28 09:00:13;;;;;;;0.00;0.00;;;;;;;;;;5017736;28;20205;-70
2022/02/28 09:02:41;;;;;;;1.27;0.83;;;;;;;;;;5027498;28;20304;-71
2022/02/28 09:05:09;;;;;;;0.37;0.37;;;;;;;;;;5022880;28;20196;-74
2022/02/28 09:07:36;;;;;;;0.33;0.33;;;;;;;;;;5017909;28;20200;-71
2022/02/28 09:10:04;;;;;;;0.57;0.57;;;;;;;;;;5018393;28;20196;-68
2022/02/28 09:12:32;;;;;;;0.93;0.80;;;;;;;;;;5017789;28;20205;-70
2022/02/28 09:15:01;;;;;;;2.03;1.93;;;;;;;;;;5013941;28;20234;-71
2022/02/28 09:17:28;;;;;;;1.07;1.07;;;;;;;;;;5018199;28;20216;-72
2022/02/28 09:19:55;;;;;;;0.00;0.00;;;;;;;;;;5018589;28;20196;-70
2022/02/28 09:22:23;;;;;;;0.10;0.10;;;;;;;;;;5018025;28;20203;-69
2022/02/28 09:24:50;;;;;;;2.33;2.13;;;;;;;;;;5017534;28;20202;-70
2022/02/28 09:27:17;;;;;;;2.17;1.73;;;;;;;;;;5017079;28;20593;-70
2022/02/28 09:29:45;;;;;;;1.23;0.63;;;;;;;;;;5018166;28;20204;-70
2022/02/28 09:32:14;;;;;;;10.77;9.90;;;;;;;;;;5017662;28;20576;-69
2022/02/28 09:34:41;;;;;;;0.63;0.63;;;;;;;;;;5016716;28;20203;-69
2022/02/28 09:37:08;;;;;;;1.70;1.60;;;;;;;;;;5012478;28;20254;-70
2022/02/28 09:39:36;;;;;;;1.03;0.40;;;;;;;;;;5018110;28;20247;-69
2022/02/28 09:42:04;;;;;;;0.77;0.77;;;;;;;;;;5014025;28;20204;-71
2022/02/28 09:44:32;;;;;;;0.70;0.67;;;;;;;;;;5017010;28;20308;-68
2022/02/28 09:47:00;;;;;;;0.43;0.40;;;;;;;;;;5016598;28;20201;-69
2022/02/28 09:49:29;;;;;;;1.33;1.03;;;;;;;;;;5021656;28;20196;-70
2022/02/28 09:51:56;;;;;;;0.60;0.60;;;;;;;;;;5021953;28;20193;-70
2022/02/28 09:54:24;;;;;;;0.67;0.67;;;;;;;;;;5017356;28;20712;-73
2022/02/28 09:56:51;;;;;;;1.40;1.07;;;;;;;;;;5021545;28;20572;-69
2022/02/28 09:59:20;;;;;;;0.37;0.37;;;;;;;;;;5018935;28;20315;-69
2022/02/28 10:01:47;;;;;;;0.30;0.23;;;;;;;;;;5015560;28;20203;-71
2022/02/28 10:04:15;;;;;;;0.57;0.53;;;;;;;;;;5014663;28;20779;-70
2022/02/28 10:06:44;;;;;;;0.60;0.60;;;;;;;;;;5015867;28;20204;-72
2022/02/28 10:09:17;;;;;;;0.53;0.47;;;;;;;;;;5017463;28;20212;-70
2022/02/28 10:11:44;;;;;;;0.33;0.10;;;;;;;;;;5015292;28;20192;-73
2022/02/28 10:14:12;;;;;;;0.73;0.73;;;;;;;;;;5012901;28;20287;-70
2022/02/28 10:16:41;;;;;;;2.33;1.13;;;;;;;;;;5019198;28;20204;-73
2022/02/28 10:19:10;;;;;;;1.23;1.13;;;;;;;;;;5017601;28;20298;-70
2022/02/28 10:21:39;;;;;;;1.03;0.30;;;;;;;;;;5016075;28;20199;-70
2022/02/28 10:24:08;;;;;;;3.97;1.83;;;;;;;;;;5013689;28;20671;-70
2022/02/28 10:26:39;;;;;;;7.33;3.80;;;;;;;;;;5014564;28;20200;-70
2022/02/28 10:29:07;;;;;;;2.60;2.00;;;;;;;;;;5016456;28;20208;-70
2022/02/28 10:31:37;;;;;;;0.97;0.87;;;;;;;;;;5014731;28;20207;-71
2022/02/28 10:34:15;;;;;;;4.10;1.73;;;;;;;;;;5012017;28;20303;-72
2022/02/28 10:36:45;;;;;;;1.33;1.23;;;;;;;;;;5029169;28;20212;-73
2022/02/28 10:39:14;;;;;;;1.90;1.47;;;;;;;;;;5028781;28;20319;-70
2022/02/28 10:41:43;;;;;;;1.13;1.10;;;;;;;;;;5026621;28;20211;-69
2022/02/28 10:44:12;;;;;;;1.43;0.67;;;;;;;;;;5026640;28;20684;-70
2022/02/28 10:46:43;;;;;;;1.30;0.93;;;;;;;;;;5024641;28;20379;-71
2022/02/28 10:49:15;;;;;;;1.07;0.87;;;;;;;;;;5021941;28;20193;-68
2022/02/28 10:51:50;;;;;;;1.10;1.00;;;;;;;;;;5023626;28;20200;-72
2022/02/28 10:54:23;;;;;;;0.97;0.93;;;;;;;;;;5024497;28;20584;-71
2022/02/28 10:56:51;;;;;;;0.47;0.47;;;;;;;;;;5029140;28;20209;-70
2022/02/28 10:59:20;;;;;;;1.50;1.40;;;;;;;;;;5026310;28;20239;-71
2022/02/28 11:01:47;;;;;;;1.90;1.80;;;;;;;;;;5026208;28;20629;-71
2022/02/28 11:04:15;;;;;;;0.57;0.57;;;;;;;;;;5026928;28;20276;-72
2022/02/28 11:06:49;;;;;;;2.03;1.87;;;;;;;;;;5023200;28;20203;-70
2022/02/28 11:09:18;;;;;;;1.40;1.30;;;;;;;;;;5046522;28;20227;-68
2022/02/28 11:11:48;;;;;;;0.30;0.13;;;;;;;;;;5034012;28;20299;-71
2022/02/28 11:14:15;;;;;;;2.00;0.57;;;;;;;;;;5024887;28;20223;-70
2022/02/28 11:16:43;;;;;;;2.57;2.37;;;;;;;;;;5022607;28;20379;-69
2022/02/28 11:19:10;;;;;;;0.50;0.50;;;;;;;;;;5025198;28;20232;-70
2022/02/28 11:21:46;;;;;;;1.20;1.10;;;;;;;;;;5043389;28;20203;-66
2022/02/28 11:24:14;;;;;;;0.10;0.10;;;;;;;;;;5032904;28;20239;-71
2022/02/28 11:26:41;;;;;;;0.13;0.13;;;;;;;;;;5025893;28;20197;-70
2022/02/28 11:29:10;;;;;;;0.40;0.40;;;;;;;;;;5029033;28;20204;-72
2022/02/28 11:31:39;;;;;;;0.10;0.10;;;;;;;;;;5027046;28;20196;-70
2022/02/28 11:34:10;;;;;;;2.03;1.53;;;;;;;;;;5026530;28;20203;-70
2022/02/28 11:36:48;;;;;;;0.80;0.80;;;;;;;;;;5028403;28;20577;-69
2022/02/28 11:39:15;;;;;;;4.63;2.37;;;;;;;;;;5025317;28;20248;-69
2022/02/28 11:41:42;;;;;;;0.77;0.43;;;;;;;;;;5026704;28;20201;-73
2022/02/28 11:44:12;;;;;;;0.00;0.00;;;;;;;;;;5026393;28;20197;-67
2022/02/28 11:46:41;;;;;;;0.60;0.60;;;;;;;;;;5027575;28;20250;-71
2022/02/28 11:49:10;;;;;;;0.60;0.57;;;;;;;;;;5015594;28;20286;-73
2022/02/28 11:51:39;;;;;;;0.37;0.37;;;;;;;;;;5023532;28;20200;-69
2022/02/28 11:54:08;;;;;;;0.43;0.27;;;;;;;;;;5018674;28;20208;-70
2022/02/28 11:56:55;;;;;;;1.50;0.83;;;;;;;;;;5024785;28;20204;-69
2022/02/28 11:59:34;;;;;;;0.77;0.77;;;;;;;;;;5022725;28;20623;-69
2022/02/28 12:02:04;;;;;;;0.13;0.13;;;;;;;;;;5020312;28;20203;-69
2022/02/28 12:04:32;;;;;;;0.00;0.00;;;;;;;;;;5022882;28;20212;-69
2022/02/28 12:07:02;;;;;;;2.40;2.20;;;;;;;;;;5024292;28;20978;-70
2022/02/28 12:09:46;;;;;;;0.63;0.40;;;;;;;;;;5025762;28;20228;-70
2022/02/28 12:12:21;;;;;;;1.33;1.33;;;;;;;;;;5023222;28;20248;-70
2022/02/28 12:15:07;;;;;;;3.00;1.50;;;;;;;;;;5024101;28;20215;-70
2022/02/28 12:17:49;;;;;;;0.00;0.00;;;;;;;;;;5023151;28;20770;-69
2022/02/28 12:20:19;;;;;;;1.40;0.30;;;;;;;;;;5026544;28;20200;-70
2022/02/28 12:23:08;;;;;;;0.10;0.10;;;;;;;;;;5015918;28;20214;-71
2022/02/28 12:25:36;;;;;;;0.40;0.40;;;;;;;;;;5022172;28;20236;-76
2022/02/28 12:28:15;;;;;;;8.23;1.73;;;;;;;;;;5018924;28;20200;-72
2022/02/28 12:30:48;;;;;;;0.20;0.17;;;;;;;;;;5022987;28;20195;-70
2022/02/28 12:33:17;;;;;;;0.00;0.00;;;;;;;;;;5025493;28;20196;-70
2022/02/28 12:36:06;;;;;;;2.20;0.97;;;;;;;;;;5022851;28;20614;-72
2022/02/28 12:38:36;;;;;;;2.17;2.00;;;;;;;;;;5015404;28;20298;-71
2022/02/28 12:41:05;;;;;;;2.47;1.07;;;;;;;;;;5023912;28;20200;-74
2022/02/28 12:43:33;;;;;;;1.73;1.63;;;;;;;;;;5021509;28;20673;-71
2022/02/28 12:46:02;;;;;;;1.07;0.67;;;;;;;;;;5027182;28;20192;-69
2022/02/28 12:48:30;;;;;;;1.20;0.93;;;;;;;;;;5025415;28;20583;-70
2022/02/28 12:50:58;;;;;;;0.43;0.43;;;;;;;;;;5023824;28;20196;-72
2022/02/28 12:53:26;;;;;;;1.50;0.43;;;;;;;;;;5024203;28;20196;-70
2022/02/28 12:55:56;;;;;;;0.73;0.73;;;;;;;;;;5019298;28;20207;-69
2022/02/28 12:58:25;;;;;;;1.33;0.90;;;;;;;;;;5021054;28;20689;-72
2022/02/28 13:00:52;;;;;;;1.55;1.45;;;;;;;;;;5023988;28;20205;-73
2022/02/28 13:03:19;;;;;;;0.23;0.23;;;;;;;;;;5024556;28;20203;-71
2022/02/28 13:05:57;;;;;;;1.53;0.70;;;;;;;;;;5019619;28;20693;-69
2022/02/28 13:08:25;;;;;;;1.03;1.03;;;;;;;;;;5023398;28;20595;-68
2022/02/28 13:11:14;;;;;;;0.40;0.40;;;;;;;;;;5022166;28;20255;-69
2022/02/28 13:13:42;;;;;;;1.00;0.53;;;;;;;;;;5022059;28;20246;-68
2022/02/28 13:16:10;;;;;;;9.53;2.00;;;;;;;;;;5019999;28;20192;-69
2022/02/28 13:18:37;;;;;;;1.30;1.07;;;;;;;;;;5020631;28;20223;-68
2022/02/28 13:21:05;;;;;;;0.00;0.00;;;;;;;;;;5019818;28;20208;-70
2022/02/28 13:23:34;;;;;;;1.07;0.47;;;;;;;;;;5018693;28;20577;-68
2022/02/28 13:26:01;;;;;;;0.37;0.37;;;;;;;;;;5018206;28;20200;-69
2022/02/28 13:28:31;;;;;;;3.43;1.33;;;;;;;;;;5020539;28;20247;-68
2022/02/28 13:30:59;;;;;;;0.50;0.50;;;;;;;;;;5018472;28;20203;-69
2022/02/28 13:33:27;;;;;;;0.00;0.00;;;;;;;;;;5021069;28;20669;-73
2022/02/28 13:35:55;;;;;;;0.63;0.53;;;;;;;;;;5019135;28;20265;-68
2022/02/28 13:38:23;;;;;;;2.13;1.17;;;;;;;;;;5019481;28;20212;-72
2022/02/28 13:40:51;;;;;;;0.93;0.27;;;;;;;;;;5018493;28;20659;-71
2022/02/28 13:43:19;;;;;;;0.00;0.00;;;;;;;;;;5021553;28;20211;-68
2022/02/28 13:45:49;;;;;;;0.67;0.67;;;;;;;;;;5019413;28;20291;-68
2022/02/28 13:48:18;;;;;;;0.17;0.17;;;;;;;;;;5020865;28;20212;-69
2022/02/28 13:50:46;;;;;;;0.23;0.23;;;;;;;;;;5019387;28;22239;-71
2022/02/28 13:53:14;;;;;;;1.30;1.07;;;;;;;;;;5018390;28;20211;-70
2022/02/28 13:55:43;;;;;;;0.30;0.13;;;;;;;;;;5020429;28;20201;-67
2022/02/28 13:58:12;;;;;;;1.50;1.27;;;;;;;;;;5021454;28;20204;-67
2022/02/28 14:00:51;;;;;;;0.67;0.63;;;;;;;;;;5023189;28;20224;-69
2022/02/28 14:03:21;;;;;;;0.83;0.60;;;;;;;;;;5022740;28;20200;-67
2022/02/28 14:05:49;;;;;;;0.47;0.47;;;;;;;;;;5020552;28;20200;-67
2022/02/28 14:08:17;;;;;;;0.10;0.10;;;;;;;;;;5024274;28;20195;-67
2022/02/28 14:10:45;;;;;;;0.30;0.30;;;;;;;;;;5014222;28;20211;-72
2022/02/28 14:13:14;;;;;;;2.13;1.83;;;;;;;;;;5023660;28;20200;-69
2022/02/28 14:15:41;;;;;;;0.53;0.53;;;;;;;;;;5024363;28;20191;-68
2022/02/28 14:18:10;;;;;;;0.97;0.97;;;;;;;;;;5024292;28;20192;-67
2022/02/28 14:20:38;;;;;;;0.57;0.57;;;;;;;;;;5022769;28;21021;-68
2022/02/28 14:23:07;;;;;;;1.00;0.90;;;;;;;;;;5018708;28;20197;-69
2022/02/28 14:25:35;;;;;;;1.17;1.07;;;;;;;;;;5018169;28;20565;-68
2022/02/28 14:28:03;;;;;;;1.83;1.67;;;;;;;;;;5017120;28;20258;-69
2022/02/28 14:30:31;;;;;;;0.10;0.10;;;;;;;;;;5019754;28;20226;-68
2022/02/28 14:33:03;;;;;;;3.77;3.40;;;;;;;;;;5017162;28;20263;-68
2022/02/28 14:35:31;;;;;;;1.40;0.93;;;;;;;;;;5019335;28;20200;-72
2022/02/28 14:38:00;;;;;;;4.03;2.97;;;;;;;;;;5018040;28;20654;-68
2022/02/28 14:40:28;;;;;;;0.00;0.00;;;;;;;;;;5018705;28;20228;-69
2022/02/28 14:42:57;;;;;;;0.10;0.10;;;;;;;;;;5015858;28;20585;-68
2022/02/28 14:45:24;;;;;;;1.17;1.17;;;;;;;;;;5018947;28;20216;-68
2022/02/28 14:47:52;;;;;;;0.73;0.73;;;;;;;;;;5016004;28;20200;-68
2022/02/28 14:50:19;;;;;;;0.10;0.10;;;;;;;;;;5019201;28;20573;-68